createdAt,value
2022-08-05T00:00:00.331Z,47.76
2022-08-05T00:02:28.677Z,48.28
2022-08-05T00:04:57.040Z,48.44
2022-08-05T00:07:58.917Z,47.96
2022-08-05T00:10:12.442Z,48.21
2022-08-05T00:12:56.060Z,48.45
2022-08-05T00:15:55.779Z,48.07
2022-08-05T00:18:21.444Z,48.74
2022-08-05T00:20:50.722Z,48.69
2022-08-05T00:23:44.482Z,48.39
2022-08-05T00:26:07.294Z,48.53
2022-08-05T00:28:35.529Z,48.80
2022-08-05T00:31:04.780Z,48.56
2022-08-05T00:34:54.675Z,48.43
2022-08-05T00:37:10.662Z,48.89
2022-08-05T00:39:13.679Z,48.66
2022-08-05T00:41:55.114Z,48.42
2022-08-05T00:44:30.358Z,48.59
2022-08-05T00:47:02.042Z,48.95
2022-08-05T00:49:44.734Z,48.77
2022-08-05T00:52:28.417Z,49.15
2022-08-05T00:54:56.780Z,48.61
2022-08-05T00:57:25.446Z,48.68
2022-08-05T01:00:10.994Z,49.23
2022-08-05T01:02:38.733Z,49.20
2022-08-05T01:05:10.152Z,48.64
2022-08-05T01:07:37.780Z,49.81
2022-08-05T01:10:30.734Z,48.68
2022-08-05T01:13:13.084Z,48.72
2022-08-05T01:15:56.595Z,48.92
2022-08-05T01:18:29.838Z,49.10
2022-08-05T01:21:37.761Z,49.00
2022-08-05T01:24:22.096Z,49.27
2022-08-05T01:27:24.998Z,49.53
2022-08-05T01:29:58.221Z,49.90
2022-08-05T01:32:29.786Z,50.24
2022-08-05T01:35:03.385Z,50.02
2022-08-05T01:37:44.810Z,50.50
2022-08-05T01:40:18.034Z,50.43
2022-08-05T01:42:47.027Z,50.34
2022-08-05T01:45:16.582Z,50.53
2022-08-05T01:47:46.474Z,50.93
2022-08-05T01:50:29.786Z,51.04
2022-08-05T01:53:04.434Z,51.12
2022-08-05T01:55:36.083Z,51.89
2022-08-05T01:58:13.190Z,51.65
2022-08-05T02:00:49.024Z,52.06
2022-08-05T02:03:34.129Z,52.43
2022-08-05T02:06:37.488Z,52.73
2022-08-05T02:08:58.137Z,52.99
2022-08-05T02:11:32.826Z,53.37
2022-08-05T02:14:08.379Z,53.52
2022-08-05T02:16:46.519Z,53.41
2022-08-05T02:19:25.223Z,53.18
2022-08-05T02:22:25.957Z,53.36
2022-08-05T02:25:03.337Z,53.71
2022-08-05T02:27:58.565Z,53.51
2022-08-05T02:30:26.831Z,53.87
2022-08-05T02:33:00.152Z,54.50
2022-08-05T02:35:37.390Z,53.77
2022-08-05T02:38:09.505Z,53.92
2022-08-05T02:40:41.029Z,53.96
2022-08-05T02:43:11.266Z,54.38
2022-08-05T02:45:51.423Z,55.00
2022-08-05T02:48:28.844Z,54.58
2022-08-05T02:51:00.380Z,54.72
2022-08-05T02:53:38.961Z,54.76
2022-08-05T02:56:09.378Z,54.89
2022-08-05T02:58:43.514Z,54.86
2022-08-05T03:01:17.425Z,55.98
2022-08-05T03:04:02.782Z,55.96
2022-08-05T03:06:54.362Z,55.39
2022-08-05T03:09:36.137Z,55.63
2022-08-05T03:12:04.979Z,55.61
2022-08-05T03:14:32.532Z,55.42
2022-08-05T03:17:00.628Z,55.51
2022-08-05T03:19:34.164Z,54.67
2022-08-05T03:22:04.822Z,54.27
2022-08-05T03:24:47.167Z,54.21
2022-08-05T03:27:19.109Z,54.37
2022-08-05T03:30:07.394Z,54.83
2022-08-05T03:32:34.697Z,54.91
2022-08-05T03:35:04.495Z,54.82
2022-08-05T03:37:46.152Z,55.23
2022-08-05T03:40:15.486Z,54.36
2022-08-05T03:42:59.555Z,54.83
2022-08-05T03:45:57.484Z,54.96
2022-08-05T03:48:26.894Z,54.97
2022-08-05T03:52:36.629Z,54.86
2022-08-05T03:55:51.988Z,55.03
2022-08-05T03:57:41.865Z,56.29
2022-08-05T04:00:16.291Z,56.43
2022-08-05T04:02:58.718Z,56.51
2022-08-05T04:05:35.309Z,55.85
2022-08-05T04:08:14.494Z,56.52
2022-08-05T04:10:53.763Z,57.20
2022-08-05T04:13:22.813Z,56.99
2022-08-05T04:16:04.284Z,57.00
2022-08-05T04:18:34.231Z,57.64
2022-08-05T04:21:03.969Z,58.19
2022-08-05T04:24:06.045Z,58.70
2022-08-05T04:26:20.393Z,58.77
2022-08-05T04:28:51.823Z,59.04
2022-08-05T04:31:20.375Z,59.14
2022-08-05T04:34:18.181Z,59.54
2022-08-05T04:36:44.651Z,59.14
2022-08-05T04:39:13.971Z,58.74
2022-08-05T04:41:41.418Z,56.65
2022-08-05T04:44:09.909Z,56.94
2022-08-05T04:46:38.635Z,57.54
2022-08-05T04:49:12.411Z,58.12
2022-08-05T04:51:44.024Z,57.48
2022-08-05T04:54:12.208Z,57.12
2022-08-05T04:56:40.113Z,57.43
2022-08-05T04:59:22.009Z,56.58
2022-08-05T05:02:35.538Z,57.33
2022-08-05T05:04:47.768Z,56.74
2022-08-05T05:07:18.219Z,57.49
2022-08-05T05:09:52.137Z,57.20
2022-08-05T05:12:21.332Z,57.12
2022-08-05T05:14:50.912Z,57.92
2022-08-05T05:17:23.879Z,56.57
2022-08-05T05:19:55.102Z,56.95
2022-08-05T05:22:26.430Z,56.05
2022-08-05T05:25:00.231Z,56.32
2022-08-05T05:27:41.781Z,55.51
2022-08-05T05:30:30.659Z,55.01
2022-08-05T05:33:03.848Z,54.92
2022-08-05T05:35:42.549Z,54.12
2022-08-05T05:38:13.232Z,53.39
2022-08-05T05:40:49.631Z,52.73
2022-08-05T05:43:22.185Z,52.29
2022-08-05T05:46:12.239Z,50.55
2022-08-05T05:48:44.708Z,49.15
2022-08-05T05:51:19.838Z,48.37
2022-08-05T05:53:57.902Z,46.11
2022-08-05T05:56:31.609Z,46.73
2022-08-05T05:59:07.528Z,44.88
2022-08-05T06:01:40.438Z,44.98
2022-08-05T06:04:24.707Z,46.02
2022-08-05T06:06:52.598Z,46.08
2022-08-05T06:09:24.777Z,46.50
2022-08-05T06:12:00.035Z,45.53
2022-08-05T06:14:30.817Z,45.73
2022-08-05T06:16:58.693Z,45.87
2022-08-05T06:19:34.640Z,45.34
2022-08-05T06:22:07.847Z,45.65
2022-08-05T06:24:41.596Z,45.56
2022-08-05T06:27:20.004Z,45.46
2022-08-05T06:30:17.940Z,45.35
2022-08-05T06:32:48.408Z,45.35
2022-08-05T06:36:03.886Z,46.01
2022-08-05T06:38:10.089Z,45.88
2022-08-05T06:40:44.355Z,46.20
2022-08-05T06:43:58.137Z,44.94
2022-08-05T06:46:07.277Z,46.01
2022-08-05T06:48:55.318Z,45.00
2022-08-05T06:51:29.980Z,43.96
2022-08-05T06:54:03.269Z,43.73
2022-08-05T06:56:34.189Z,43.54
2022-08-05T06:59:09.554Z,41.68
2022-08-05T07:01:40.680Z,42.01
2022-08-05T07:04:08.842Z,43.31
2022-08-05T07:06:36.032Z,44.32
2022-08-05T07:09:04.722Z,45.63
2022-08-05T07:11:37.104Z,48.01
2022-08-05T07:14:30.373Z,48.42
2022-08-05T07:18:08.750Z,49.55
2022-08-05T07:20:34.124Z,50.17
2022-08-05T07:22:38.180Z,51.02
2022-08-05T07:25:23.515Z,52.03
2022-08-05T07:28:00.083Z,53.69
2022-08-05T07:30:39.160Z,54.67
2022-08-05T07:33:15.585Z,55.95
2022-08-05T07:36:03.870Z,56.23
2022-08-05T07:38:34.237Z,57.72
2022-08-05T07:42:07.128Z,58.60
2022-08-05T07:43:57.902Z,59.05
2022-08-05T07:46:31.466Z,58.81
2022-08-05T07:49:05.912Z,59.14
2022-08-05T07:51:40.911Z,59.27
2022-08-05T07:54:23.117Z,59.33
2022-08-05T07:57:01.385Z,57.77
2022-08-05T07:59:39.708Z,58.07
2022-08-05T08:02:16.203Z,57.13
2022-08-05T08:04:49.485Z,57.61
2022-08-05T08:07:22.489Z,55.85
2022-08-05T08:09:52.730Z,55.36
2022-08-05T08:12:33.377Z,54.13
2022-08-05T08:15:09.688Z,52.65
2022-08-05T08:17:46.116Z,52.05
2022-08-05T08:20:43.691Z,53.87
2022-08-05T08:23:07.519Z,53.49
2022-08-05T08:25:59.245Z,54.12
2022-08-05T08:28:36.586Z,54.21
2022-08-05T08:31:08.196Z,55.30
2022-08-05T08:33:38.063Z,54.59
2022-08-05T08:38:57.376Z,52.87
2022-08-05T08:41:52.393Z,52.71
2022-08-05T08:45:21.152Z,51.79
2022-08-05T08:47:47.061Z,49.83
2022-08-05T08:50:22.655Z,48.54
2022-08-05T08:52:51.672Z,46.92
2022-08-05T08:56:02.163Z,47.42
2022-08-05T08:58:10.643Z,48.37
2022-08-05T09:00:42.384Z,48.53
2022-08-05T09:03:16.320Z,46.25
2022-08-05T09:06:08.148Z,43.46
2022-08-05T09:08:40.233Z,42.99
2022-08-05T09:11:12.154Z,45.06
2022-08-05T09:14:09.182Z,44.89
2022-08-05T09:16:30.887Z,43.78
2022-08-05T09:18:59.440Z,43.80
2022-08-05T09:22:17.976Z,41.97
2022-08-05T09:24:16.144Z,40.25
2022-08-05T09:26:50.361Z,39.79
2022-08-05T09:29:19.850Z,38.31
2022-08-05T09:32:41.581Z,37.94
2022-08-05T09:34:58.359Z,37.12
2022-08-05T09:38:18.484Z,37.04
2022-08-05T09:40:33.291Z,36.94
2022-08-05T09:43:08.535Z,36.94
2022-08-05T09:46:06.857Z,39.78
2022-08-05T09:48:33.779Z,38.85
2022-08-05T09:51:03.891Z,38.65
2022-08-05T09:53:54.772Z,38.00
2022-08-05T09:56:33.378Z,37.70
2022-08-05T09:59:04.335Z,38.43
2022-08-05T10:01:33.841Z,38.24
2022-08-05T10:04:10.581Z,37.56
2022-08-05T10:06:40.612Z,37.09
2022-08-05T10:09:27.303Z,37.52
2022-08-05T10:12:18.907Z,38.93
2022-08-05T10:15:20.192Z,37.09
2022-08-05T10:18:12.053Z,36.18
2022-08-05T10:20:51.222Z,35.50
2022-08-05T10:23:59.824Z,36.18
2022-08-05T10:26:32.692Z,35.34
2022-08-05T10:29:02.591Z,34.79
2022-08-05T10:33:02.199Z,35.89
2022-08-05T10:34:17.686Z,35.16
2022-08-05T10:36:53.590Z,35.22
2022-08-05T10:40:03.585Z,34.40
2022-08-05T10:42:33.813Z,34.70
2022-08-05T10:45:21.206Z,34.79
2022-08-05T10:48:27.651Z,33.92
2022-08-05T10:51:05.816Z,32.67
2022-08-05T10:53:55.376Z,32.47
2022-08-05T10:56:26.274Z,32.18
2022-08-05T10:58:53.746Z,32.82
2022-08-05T11:01:55.275Z,32.01
2022-08-05T11:04:26.362Z,31.77
2022-08-05T11:07:04.515Z,31.83
2022-08-05T11:10:09.629Z,32.05
2022-08-05T11:12:38.319Z,31.46
2022-08-05T11:15:59.513Z,31.37
2022-08-05T11:18:30.026Z,32.93
2022-08-05T11:21:02.007Z,33.93
2022-08-05T11:24:05.570Z,32.82
2022-08-05T11:26:28.815Z,31.45
2022-08-05T11:29:13.015Z,32.57
2022-08-05T11:31:57.909Z,32.13
2022-08-05T11:34:51.102Z,32.82
2022-08-05T11:38:26.768Z,30.23
2022-08-05T11:41:01.333Z,29.50
2022-08-05T11:44:06.291Z,29.77
2022-08-05T11:46:58.076Z,29.73
2022-08-05T11:49:38.263Z,28.68
2022-08-05T11:52:11.593Z,28.18
2022-08-05T11:54:41.589Z,27.39
2022-08-05T11:57:25.839Z,27.92
2022-08-05T11:59:55.203Z,29.25
2022-08-05T12:02:33.110Z,31.28
2022-08-05T12:05:07.979Z,29.42
2022-08-05T12:08:03.609Z,33.90
2022-08-05T12:10:45.783Z,34.87
2022-08-05T12:13:28.330Z,33.19
2022-08-05T12:16:17.865Z,32.93
2022-08-05T12:18:48.716Z,32.78
2022-08-05T12:21:30.327Z,32.90
2022-08-05T12:24:09.690Z,33.44
2022-08-05T12:26:39.550Z,33.24
2022-08-05T12:29:17.925Z,32.86
2022-08-05T12:31:54.351Z,33.02
2022-08-05T12:34:37.142Z,33.18
2022-08-05T12:37:21.543Z,33.29
2022-08-05T12:39:52.007Z,33.91
2022-08-05T12:42:25.360Z,32.86
2022-08-05T12:45:11.291Z,33.26
2022-08-05T12:47:43.568Z,33.61
2022-08-05T12:50:26.611Z,33.59
2022-08-05T12:52:59.949Z,33.54
2022-08-05T12:55:33.060Z,33.41
2022-08-05T12:58:50.750Z,33.18
2022-08-05T13:02:03.859Z,32.63
2022-08-05T13:03:42.119Z,33.13
2022-08-05T13:06:15.936Z,33.79
2022-08-05T13:08:50.776Z,33.01
2022-08-05T13:11:25.616Z,33.51
2022-08-05T13:14:19.896Z,33.70
2022-08-05T13:16:58.727Z,33.86
2022-08-05T13:19:51.808Z,33.54
2022-08-05T13:22:29.554Z,33.56
2022-08-05T13:25:00.580Z,32.27
2022-08-05T13:27:38.204Z,32.63
2022-08-05T13:30:33.619Z,32.91
2022-08-05T13:32:56.446Z,32.75
2022-08-05T13:35:43.191Z,32.60
2022-08-05T13:38:20.261Z,31.92
2022-08-05T13:41:00.210Z,32.06
2022-08-05T13:43:45.235Z,31.15
2022-08-05T13:46:16.313Z,31.83
2022-08-05T13:49:00.893Z,32.21
2022-08-05T13:51:40.261Z,32.01
2022-08-05T13:54:12.258Z,32.38
2022-08-05T13:56:51.147Z,32.65
2022-08-05T13:59:24.564Z,32.08
2022-08-05T14:01:57.673Z,32.37
2022-08-05T14:04:54.873Z,31.79
2022-08-05T14:08:00.793Z,31.77
2022-08-05T14:10:28.509Z,31.67
2022-08-05T14:12:57.216Z,31.11
2022-08-05T14:16:09.087Z,31.34
2022-08-05T14:18:17.843Z,31.65
2022-08-05T14:20:49.044Z,32.00
2022-08-05T14:23:25.603Z,31.22
2022-08-05T14:25:58.640Z,30.33
2022-08-05T14:28:28.970Z,30.29
2022-08-05T14:30:57.980Z,30.61
2022-08-05T14:33:25.654Z,30.16
2022-08-05T14:35:54.435Z,30.83
2022-08-05T14:38:31.612Z,30.85
2022-08-05T14:41:06.320Z,31.08
2022-08-05T14:43:58.767Z,31.29
2022-08-05T14:46:28.732Z,31.47
2022-08-05T14:49:03.409Z,31.59
2022-08-05T14:51:35.717Z,31.65
2022-08-05T14:54:27.094Z,31.83
2022-08-05T14:56:50.983Z,31.50
2022-08-05T14:59:21.751Z,32.13
2022-08-05T15:01:50.148Z,32.48
2022-08-05T15:04:22.469Z,32.44
2022-08-05T15:06:51.260Z,32.68
2022-08-05T15:09:51.790Z,32.67
2022-08-05T15:12:16.543Z,32.60
2022-08-05T15:14:50.220Z,32.70
2022-08-05T15:17:45.867Z,32.40
2022-08-05T15:20:19.071Z,32.25
2022-08-05T15:22:54.308Z,32.16
2022-08-05T15:25:41.017Z,32.81
2022-08-05T15:28:13.336Z,32.57
2022-08-05T15:30:46.404Z,32.74
2022-08-05T15:34:18.535Z,32.53
2022-08-05T15:36:06.301Z,32.52
2022-08-05T15:38:44.827Z,32.79
2022-08-05T15:41:22.917Z,32.37
2022-08-05T15:43:51.872Z,33.12
2022-08-05T15:46:24.127Z,32.66
2022-08-05T15:49:00.563Z,32.76
2022-08-05T15:52:03.799Z,33.22
2022-08-05T15:54:17.775Z,33.11
2022-08-05T15:56:45.358Z,33.50
2022-08-05T15:59:21.934Z,33.52
2022-08-05T16:01:53.316Z,33.40
2022-08-05T16:04:25.798Z,33.98
2022-08-05T16:06:55.503Z,33.83
2022-08-05T16:09:24.343Z,33.94
2022-08-05T16:11:53.186Z,33.89
2022-08-05T16:14:22.393Z,33.98
2022-08-05T16:16:50.676Z,34.16
2022-08-05T16:20:02.787Z,34.57
2022-08-05T16:22:10.466Z,34.81
2022-08-05T16:24:41.307Z,34.68
2022-08-05T16:27:18.237Z,35.36
2022-08-05T16:29:50.350Z,35.33
2022-08-05T16:32:23.284Z,35.21
2022-08-05T16:34:58.774Z,35.64
2022-08-05T16:38:03.119Z,35.45
2022-08-05T16:40:26.576Z,35.85
2022-08-05T16:42:57.151Z,35.71
2022-08-05T16:46:05.011Z,36.50
2022-08-05T16:48:12.019Z,36.62
2022-08-05T16:50:54.446Z,36.39
2022-08-05T16:54:02.847Z,36.87
2022-08-05T16:56:10.266Z,37.11
2022-08-05T16:58:41.073Z,37.84
2022-08-05T17:01:09.479Z,37.62
2022-08-05T17:03:38.970Z,37.94
2022-08-05T17:06:06.792Z,38.59
2022-08-05T17:08:52.324Z,38.74
2022-08-05T17:11:25.676Z,39.54
2022-08-05T17:14:00.379Z,40.17
2022-08-05T17:16:36.594Z,40.29
2022-08-05T17:19:07.355Z,40.49
2022-08-05T17:21:39.364Z,41.19
2022-08-05T17:24:19.553Z,41.15
2022-08-05T17:26:57.712Z,42.16
2022-08-05T17:29:33.164Z,42.14
2022-08-05T17:32:01.622Z,42.75
2022-08-05T17:34:30.038Z,42.31
2022-08-05T17:37:00.503Z,41.83
2022-08-05T17:39:34.309Z,41.99
2022-08-05T17:42:18.316Z,41.55
2022-08-05T17:44:50.472Z,40.89
2022-08-05T17:47:22.047Z,39.30
2022-08-05T17:49:52.096Z,39.97
2022-08-05T17:52:31.970Z,42.10
2022-08-05T17:54:59.735Z,43.27
2022-08-05T17:57:27.979Z,46.16
2022-08-05T18:00:05.458Z,48.68
2022-08-05T18:02:34.120Z,49.39
2022-08-05T18:05:07.741Z,51.64
2022-08-05T18:07:41.536Z,52.50
2022-08-05T18:10:14.060Z,53.67
2022-08-05T18:12:49.379Z,54.59
2022-08-05T18:15:17.025Z,55.44
2022-08-05T18:17:59.230Z,56.70
2022-08-05T18:20:32.145Z,59.01
2022-08-05T18:23:09.557Z,60.62
2022-08-05T18:25:45.168Z,61.42
2022-08-05T18:28:16.092Z,63.20
2022-08-05T18:30:45.937Z,64.68
2022-08-05T18:33:23.157Z,66.08
2022-08-05T18:36:03.424Z,69.07
2022-08-05T18:38:36.249Z,73.38
2022-08-05T18:41:57.093Z,74.47
2022-08-05T18:43:55.672Z,77.26
2022-08-05T18:46:26.016Z,78.22
2022-08-05T18:48:56.720Z,80.84
2022-08-05T18:52:04.498Z,82.69
2022-08-05T18:54:31.916Z,84.31
2022-08-05T18:57:03.461Z,87.00
2022-08-05T18:59:42.907Z,88.76
2022-08-05T19:02:27.812Z,89.39
2022-08-05T19:05:02.418Z,91.09
2022-08-05T19:07:47.988Z,92.40
2022-08-05T19:10:17.298Z,92.01
2022-08-05T19:12:46.072Z,92.97
2022-08-05T19:15:57.083Z,93.88
2022-08-05T19:18:10.016Z,94.52
2022-08-05T19:20:46.588Z,95.14
2022-08-05T19:24:04.941Z,96.31
2022-08-05T19:26:03.396Z,96.10
2022-08-05T19:28:33.011Z,96.52
2022-08-05T19:31:01.069Z,96.78
2022-08-05T19:33:33.951Z,97.42
2022-08-05T19:36:05.923Z,98.13
2022-08-05T19:38:35.869Z,98.84
2022-08-05T19:41:07.116Z,99.61
2022-08-05T19:44:05.729Z,98.93
2022-08-05T19:46:29.215Z,100.00
2022-08-05T19:49:01.036Z,100.00
2022-08-05T19:52:05.889Z,100.00
2022-08-05T19:54:26.760Z,100.00
2022-08-05T19:57:06.703Z,100.00
2022-08-05T19:59:56.487Z,100.00
2022-08-05T20:02:27.039Z,100.00
2022-08-05T20:04:59.187Z,100.00
2022-08-05T20:07:46.003Z,100.00
2022-08-05T20:10:19.351Z,99.05
2022-08-05T20:12:49.853Z,99.49
2022-08-05T20:15:23.364Z,98.98
2022-08-05T20:18:10.491Z,98.85
2022-08-05T20:20:56.924Z,96.44
2022-08-05T20:23:44.632Z,95.24
2022-08-05T20:26:15.200Z,93.81
2022-08-05T20:28:49.793Z,93.97
2022-08-05T20:31:28.249Z,93.28
2022-08-05T20:34:04.560Z,91.14
2022-08-05T20:36:31.981Z,89.55
2022-08-05T20:39:00.300Z,87.77
2022-08-05T20:41:44.526Z,88.40
2022-08-05T20:44:30.394Z,87.83
2022-08-05T20:47:03.180Z,86.54
2022-08-05T20:49:37.772Z,86.62
2022-08-05T20:52:10.725Z,86.12
2022-08-05T20:54:55.315Z,85.38
2022-08-05T20:57:43.230Z,84.74
2022-08-05T21:00:40.029Z,83.71
2022-08-05T21:03:06.808Z,84.01
2022-08-05T21:05:54.312Z,84.08
2022-08-05T21:08:32.832Z,83.95
2022-08-05T21:12:06.525Z,84.28
2022-08-05T21:14:02.470Z,85.16
2022-08-05T21:16:30.931Z,85.89
2022-08-05T21:19:00.654Z,86.93
2022-08-05T21:21:39.305Z,87.72
2022-08-05T21:24:12.529Z,88.62
2022-08-05T21:26:41.455Z,89.37
2022-08-05T21:29:12.644Z,88.79
2022-08-05T21:31:44.857Z,87.89
2022-08-05T21:34:12.775Z,86.77
2022-08-05T21:36:42.278Z,87.45
2022-08-05T21:39:14.249Z,87.35
2022-08-05T21:41:52.616Z,84.83
2022-08-05T21:44:28.570Z,85.47
2022-08-05T21:46:58.073Z,85.24
2022-08-05T21:49:48.666Z,84.94
2022-08-05T21:52:23.004Z,84.62
2022-08-05T21:55:06.284Z,83.26
2022-08-05T21:57:35.467Z,82.65
2022-08-05T22:00:06.415Z,80.87
2022-08-05T22:02:41.701Z,81.68
2022-08-05T22:05:11.586Z,81.41
2022-08-05T22:07:59.518Z,82.27
2022-08-05T22:10:28.622Z,81.68
2022-08-05T22:14:05.175Z,82.25
2022-08-05T22:16:00.852Z,82.83
2022-08-05T22:18:42.858Z,82.42
2022-08-05T22:21:19.108Z,82.61
2022-08-05T22:24:12.994Z,83.14
2022-08-05T22:26:59.878Z,83.03
2022-08-05T22:29:30.689Z,83.81
2022-08-05T22:32:02.751Z,83.58
2022-08-05T22:34:34.441Z,80.87
2022-08-05T22:37:05.548Z,80.47
2022-08-05T22:39:34.698Z,79.77
2022-08-05T22:42:12.201Z,79.12
2022-08-05T22:44:48.243Z,79.67
2022-08-05T22:47:29.199Z,80.07
2022-08-05T22:50:21.041Z,79.10
2022-08-05T22:52:50.023Z,78.55
2022-08-05T22:55:22.031Z,81.21
2022-08-05T22:57:51.622Z,86.34
2022-08-05T23:00:21.714Z,89.53
2022-08-05T23:02:51.941Z,90.93
2022-08-05T23:05:22.145Z,92.66
2022-08-05T23:07:50.765Z,95.97
2022-08-05T23:10:20.824Z,96.30
2022-08-05T23:12:54.901Z,98.74
2022-08-05T23:15:26.917Z,99.58
2022-08-05T23:18:00.970Z,100.00
2022-08-05T23:20:32.360Z,100.00
2022-08-05T23:23:00.738Z,100.00
2022-08-05T23:25:52.346Z,100.00
2022-08-05T23:28:21.960Z,100.00
2022-08-05T23:30:53.987Z,100.00
2022-08-05T23:33:26.479Z,100.00
2022-08-05T23:36:13.567Z,100.00
2022-08-05T23:38:42.826Z,100.00
2022-08-05T23:41:11.892Z,100.00
2022-08-05T23:44:05.848Z,100.00
2022-08-05T23:46:29.785Z,100.00
2022-08-05T23:49:00.746Z,100.00
2022-08-05T23:51:53.647Z,100.00
2022-08-05T23:54:26.056Z,100.00
2022-08-05T23:56:55.744Z,100.00
